Time;durP1;ratioP1;P1;durP2;ratioP2;P2;SDS_P1;SDS_P2;PMS_P1;PMS_P2;Temp;Humidity;BMP_temperature;BMP_pressure;BME280_temperature;BME280_humidity;BME280_pressure;Samples;Min_cycle;Max_cycle;Signal;HPM_P1;HPM_P2
2023/03/28 00:00:43;;;;;;;7.65;1.65;;;3.30;99.90;;;;;;5037456;28;20084;-74
2023/03/28 00:03:13;;;;;;;7.88;0.90;;;3.00;99.90;;;;;;5055374;28;20446;-74
2023/03/28 00:05:39;;;;;;;6.97;1.00;;;3.70;99.90;;;;;;5038884;28;20072;-74
2023/03/28 00:08:05;;;;;;;5.30;1.20;;;3.30;99.90;;;;;;5038247;28;20056;-74
2023/03/28 00:10:31;;;;;;;9.68;0.98;;;3.00;99.90;;;;;;5021141;28;20445;-73
2023/03/28 00:12:57;;;;;;;5.88;0.85;;;3.30;99.90;;;;;;5037331;28;20037;-73
2023/03/28 00:15:24;;;;;;;6.13;0.85;;;3.20;99.90;;;;;;5055042;28;20494;-74
2023/03/28 00:17:51;;;;;;;7.60;1.23;;;3.60;99.90;;;;;;5020946;28;20149;-73
2023/03/28 00:20:17;;;;;;;6.22;1.20;;;3.10;99.90;;;;;;5038161;28;20386;-73
2023/03/28 00:22:43;;;;;;;9.93;1.15;;;3.00;99.90;;;;;;5037448;28;20053;-73
2023/03/28 00:25:09;;;;;;;10.68;1.20;;;3.40;99.90;;;;;;5055526;28;20052;-73
2023/03/28 00:27:35;;;;;;;4.78;1.10;;;3.40;99.90;;;;;;5055196;28;20481;-74
2023/03/28 00:30:03;;;;;;;6.03;0.85;;;3.20;99.90;;;;;;5054735;28;20052;-74
2023/03/28 00:32:30;;;;;;;7.75;0.80;;;3.00;99.90;;;;;;5055424;28;20107;-74
2023/03/28 00:34:55;;;;;;;7.13;1.00;;;3.30;99.90;;;;;;5037292;28;20071;-74
2023/03/28 00:37:22;;;;;;;4.25;0.77;;;3.40;99.90;;;;;;5020712;28;20045;-74
2023/03/28 00:39:50;;;;;;;9.98;0.90;;;3.50;99.90;;;;;;5021569;28;20072;-74
2023/03/28 00:42:17;;;;;;;8.60;1.25;;;3.40;99.90;;;;;;5037788;28;20041;-76
2023/03/28 00:44:51;;;;;;;8.98;1.00;;;3.40;99.90;;;;;;5054589;28;20091;-74
2023/03/28 00:47:48;;;;;;;6.60;0.88;;;3.00;99.90;;;;;;5020755;28;20052;-74
2023/03/28 00:50:26;;;;;;;7.10;1.10;;;3.10;99.90;;;;;;5037275;28;20140;-74
2023/03/28 00:53:22;;;;;;;7.82;0.90;;;3.00;99.90;;;;;;5037049;28;20063;-73
2023/03/28 00:55:56;;;;;;;7.90;1.02;;;2.90;99.90;;;;;;5054583;28;20049;-74
2023/03/28 00:58:26;;;;;;;8.60;1.00;;;2.80;99.90;;;;;;5054991;28;20045;-74
2023/03/28 01:00:57;;;;;;;7.82;1.20;;;3.00;99.90;;;;;;5020518;28;20049;-73
2023/03/28 01:03:27;;;;;;;6.90;0.80;;;3.40;99.90;;;;;;5036697;28;20041;-73
2023/03/28 01:05:55;;;;;;;7.25;0.80;;;3.50;99.90;;;;;;5020566;28;20052;-73
2023/03/28 01:08:24;;;;;;;3.58;0.70;;;3.30;99.90;;;;;;5054092;28;20425;-73
2023/03/28 01:10:50;;;;;;;4.97;0.70;;;3.30;99.90;;;;;;5036419;28;20166;-74
2023/03/28 01:13:18;;;;;;;8.70;1.05;;;3.30;99.90;;;;;;5054003;28;20044;-74
2023/03/28 01:15:47;;;;;;;5.40;1.25;;;3.00;99.90;;;;;;5053952;28;20483;-73
2023/03/28 01:18:15;;;;;;;6.75;0.65;;;2.90;99.90;;;;;;5020570;28;20084;-74
2023/03/28 01:21:21;;;;;;;7.30;0.80;;;3.00;99.90;;;;;;5037002;28;20406;-74
2023/03/28 01:24:39;;;;;;;5.65;0.80;;;2.70;99.90;;;;;;5054428;28;20053;-73
2023/03/28 01:27:27;;;;;;;7.45;1.10;;;3.10;99.90;;;;;;5037180;28;20060;-74
2023/03/28 01:30:00;;;;;;;5.93;0.80;;;2.80;99.90;;;;;;5053816;28;20048;-73
2023/03/28 01:32:45;;;;;;;9.02;0.77;;;2.90;99.90;;;;;;5035885;28;20052;-74
2023/03/28 01:35:53;;;;;;;9.43;1.13;;;2.90;99.90;;;;;;5019974;28;20052;-73
2023/03/28 01:38:41;;;;;;;3.65;0.70;;;2.90;99.90;;;;;;5022958;28;20053;-73
2023/03/28 01:41:32;;;;;;;7.72;0.77;;;2.70;99.90;;;;;;5019614;28;20095;-74
2023/03/28 01:44:20;;;;;;;7.38;0.82;;;2.70;99.90;;;;;;5053618;28;20065;-73
2023/03/28 01:46:58;;;;;;;4.88;1.02;;;2.70;99.90;;;;;;5036796;28;20437;-74
2023/03/28 01:49:38;;;;;;;6.95;1.02;;;3.20;99.90;;;;;;5035825;28;20095;-73
2023/03/28 01:52:21;;;;;;;8.50;0.90;;;2.60;99.90;;;;;;5054115;28;20132;-73
2023/03/28 01:55:13;;;;;;;4.03;0.90;;;2.70;99.90;;;;;;5035689;28;20049;-74
2023/03/28 01:57:38;;;;;;;6.78;0.70;;;2.50;99.90;;;;;;5053682;28;20059;-73
2023/03/28 02:00:18;;;;;;;6.55;0.82;;;2.50;99.90;;;;;;5035757;28;20486;-74
2023/03/28 02:02:59;;;;;;;2.75;0.75;;;2.60;99.90;;;;;;5035822;28;20071;-74
2023/03/28 02:05:27;;;;;;;4.40;0.70;;;2.50;99.90;;;;;;5019315;28;20049;-73
2023/03/28 02:07:53;;;;;;;4.15;0.80;;;2.70;99.90;;;;;;5035473;28;20062;-73
2023/03/28 02:10:23;;;;;;;5.00;0.60;;;2.40;99.90;;;;;;5035391;28;20049;-73
2023/03/28 02:12:55;;;;;;;4.10;0.90;;;3.20;99.90;;;;;;5053119;28;20047;-74
2023/03/28 02:15:24;;;;;;;6.10;0.93;;;3.00;99.90;;;;;;5053511;28;20056;-74
2023/03/28 02:17:56;;;;;;;5.78;0.80;;;3.00;99.90;;;;;;5057306;28;20049;-73
2023/03/28 02:20:27;;;;;;;3.22;0.80;;;2.90;99.90;;;;;;5039660;28;20045;-74
2023/03/28 02:23:01;;;;;;;6.45;0.70;;;2.50;99.90;;;;;;5057978;28;20041;-73
2023/03/28 02:25:29;;;;;;;3.67;0.60;;;2.40;99.90;;;;;;5023997;28;20051;-74
2023/03/28 02:27:59;;;;;;;6.07;0.57;;;3.00;99.90;;;;;;5023691;28;20500;-73
2023/03/28 02:30:26;;;;;;;3.30;0.65;;;2.80;99.90;;;;;;5039689;28;20474;-73
2023/03/28 02:32:57;;;;;;;8.05;1.15;;;2.40;99.90;;;;;;5040418;28;20056;-74
2023/03/28 02:35:31;;;;;;;3.65;0.70;;;2.90;99.90;;;;;;5039839;28;20498;-74
2023/03/28 02:38:33;;;;;;;5.50;1.00;;;2.40;99.90;;;;;;5056980;28;20124;-72
2023/03/28 02:41:30;;;;;;;5.85;0.90;;;2.20;99.90;;;;;;5056963;28;20048;-73
2023/03/28 02:44:23;;;;;;;5.47;0.70;;;2.30;99.90;;;;;;5039194;28;20480;-73
2023/03/28 02:47:23;;;;;;;7.05;0.73;;;2.10;99.90;;;;;;5022508;28;20136;-74
2023/03/28 02:50:24;;;;;;;4.85;0.70;;;2.50;99.90;;;;;;5039029;28;20124;-73
2023/03/28 02:53:02;;;;;;;6.53;0.80;;;2.20;99.90;;;;;;5039218;28;20049;-73
2023/03/28 02:55:33;;;;;;;6.07;0.73;;;;;;;;;;5022809;28;20077;-73
2023/03/28 02:58:01;;;;;;;2.67;0.88;;;;;;;;;;5057105;28;20048;-73
2023/03/28 03:00:28;;;;;;;7.32;0.90;;;;;;;;;;5022523;28;20052;-73
2023/03/28 03:02:54;;;;;;;2.97;0.63;;;;;;;;;;5057113;28;20126;-74
2023/03/28 03:05:21;;;;;;;3.58;1.05;;;;;;;;;;5038915;28;20045;-73
2023/03/28 03:07:48;;;;;;;4.53;0.98;;;2.00;99.90;;;;;;5038937;28;20053;-73
2023/03/28 03:10:15;;;;;;;8.38;0.80;;;2.30;99.90;;;;;;5038920;28;20044;-73
2023/03/28 03:12:41;;;;;;;5.78;1.00;;;2.00;99.90;;;;;;5056338;28;20049;-74
2023/03/28 03:15:09;;;;;;;3.83;0.90;;;2.20;99.90;;;;;;5038958;28;20048;-74
2023/03/28 03:17:35;;;;;;;8.63;0.90;;;1.80;99.90;;;;;;5022132;28;20108;-74
2023/03/28 03:20:05;;;;;;;5.65;0.77;;;1.90;99.90;;;;;;5038592;28;20059;-74
2023/03/28 03:22:32;;;;;;;2.00;0.60;;;1.80;99.90;;;;;;5056290;28;20052;-74
2023/03/28 03:25:03;;;;;;;5.40;0.88;;;1.90;99.90;;;;;;5038669;28;20375;-74
2023/03/28 03:27:30;;;;;;;6.70;0.95;;;2.10;99.90;;;;;;5039635;28;20073;-74
2023/03/28 03:29:56;;;;;;;3.78;0.77;;;2.80;99.90;;;;;;5038464;28;20060;-74
2023/03/28 03:32:22;;;;;;;6.15;1.40;;;1.70;99.90;;;;;;5039011;28;20370;-74
2023/03/28 03:34:48;;;;;;;6.50;0.80;;;;;;;;;;5038231;28;20057;-74
2023/03/28 03:37:16;;;;;;;3.92;0.70;;;1.60;99.90;;;;;;5038103;28;20056;-74
2023/03/28 03:39:42;;;;;;;6.25;0.70;;;;;;;;;;5056155;28;20049;-74
2023/03/28 03:42:09;;;;;;;8.68;1.00;;;1.50;99.90;;;;;;5021425;28;20131;-74
2023/03/28 03:44:35;;;;;;;5.15;1.17;;;;;;;;;;5020936;28;20079;-74
2023/03/28 03:47:01;;;;;;;5.70;0.93;;;;;;;;;;5021467;28;20083;-74
2023/03/28 03:49:27;;;;;;;6.95;1.40;;;;;;;;;;5038049;28;20136;-74
2023/03/28 03:51:53;;;;;;;8.05;0.70;;;1.60;99.90;;;;;;5055637;28;20394;-74
2023/03/28 03:54:18;;;;;;;7.57;1.02;;;2.40;99.90;;;;;;5021793;28;20055;-74
2023/03/28 03:56:44;;;;;;;5.72;1.50;;;2.20;99.90;;;;;;5037599;28;20045;-74
2023/03/28 03:59:11;;;;;;;4.78;1.35;;;1.60;99.90;;;;;;5021304;28;20107;-74
2023/03/28 04:01:38;;;;;;;2.58;0.70;;;1.80;99.90;;;;;;5055491;28;20056;-75
2023/03/28 04:04:08;;;;;;;4.40;0.70;;;1.90;99.90;;;;;;5005952;28;20120;-74
2023/03/28 04:06:33;;;;;;;5.20;0.63;;;1.90;99.90;;;;;;5021255;28;20045;-75
2023/03/28 04:08:59;;;;;;;5.35;0.50;;;2.20;99.90;;;;;;5055657;28;20534;-74
2023/03/28 04:11:25;;;;;;;6.18;1.50;;;1.80;99.90;;;;;;5021331;28;20499;-75
2023/03/28 04:13:51;;;;;;;8.52;0.90;;;1.70;99.90;;;;;;5055903;28;20056;-75
2023/03/28 04:16:16;;;;;;;5.07;1.05;;;1.60;99.90;;;;;;5038306;28;20437;-74
2023/03/28 04:18:49;;;;;;;4.47;1.27;;;1.70;99.90;;;;;;5036941;28;20053;-74
2023/03/28 04:21:35;;;;;;;6.18;0.90;;;1.60;99.90;;;;;;5020956;28;20085;-74
2023/03/28 04:24:01;;;;;;;6.55;1.35;;;1.50;99.90;;;;;;5054197;28;20123;-74
2023/03/28 04:26:28;;;;;;;8.48;0.95;;;2.20;99.90;;;;;;5054918;28;20532;-74
2023/03/28 04:28:55;;;;;;;6.38;0.60;;;2.60;99.90;;;;;;5021310;28;20041;-74
2023/03/28 04:31:28;;;;;;;6.30;0.75;;;2.00;99.90;;;;;;5020503;28;20056;-74
2023/03/28 04:33:54;;;;;;;3.47;0.60;;;2.20;99.90;;;;;;5021188;28;20063;-74
2023/03/28 04:36:21;;;;;;;7.13;0.80;;;1.50;99.90;;;;;;5036848;28;20080;-73
2023/03/28 04:38:48;;;;;;;4.38;0.70;;;1.40;99.90;;;;;;5054143;28;20056;-74
2023/03/28 04:41:15;;;;;;;6.82;0.80;;;1.60;99.90;;;;;;5037075;28;20525;-74
2023/03/28 04:43:42;;;;;;;4.90;0.85;;;1.20;99.90;;;;;;5054175;28;20060;-74
2023/03/28 04:46:09;;;;;;;3.75;0.70;;;1.20;99.90;;;;;;5036623;28;20503;-74
2023/03/28 04:48:34;;;;;;;4.03;0.77;;;1.30;99.90;;;;;;5020686;28;20102;-74
2023/03/28 04:51:00;;;;;;;6.25;0.80;;;2.30;99.90;;;;;;5037235;28;20048;-74
2023/03/28 04:53:26;;;;;;;4.50;0.80;;;1.70;99.90;;;;;;5054437;28;20052;-74
2023/03/28 04:55:52;;;;;;;6.63;0.98;;;1.50;99.90;;;;;;5055019;28;20041;-74
2023/03/28 04:58:22;;;;;;;5.35;1.20;;;1.20;99.90;;;;;;5020264;28;20087;-74
2023/03/28 05:00:48;;;;;;;6.28;0.80;;;2.40;99.90;;;;;;5020345;28;20052;-73
2023/03/28 05:03:19;;;;;;;7.97;1.27;;;1.60;99.90;;;;;;5036540;28;20056;-74
2023/03/28 05:05:51;;;;;;;6.45;0.80;;;1.80;99.90;;;;;;5036427;28;20095;-74
2023/03/28 05:08:18;;;;;;;7.25;0.75;;;1.60;99.90;;;;;;5036638;28;20049;-75
2023/03/28 05:10:45;;;;;;;4.45;0.70;;;1.50;99.90;;;;;;5036527;28;20041;-73
2023/03/28 05:13:11;;;;;;;4.88;1.02;;;1.20;99.90;;;;;;5019627;28;20048;-75
2023/03/28 05:15:37;;;;;;;4.15;0.70;;;1.40;99.90;;;;;;5054118;28;20080;-74
2023/03/28 05:18:04;;;;;;;4.68;0.70;;;1.30;99.90;;;;;;5036167;28;20126;-74
2023/03/28 05:20:30;;;;;;;7.00;1.00;;;1.20;99.90;;;;;;5053925;28;20045;-75
2023/03/28 05:22:56;;;;;;;5.55;0.70;;;2.00;99.90;;;;;;5036049;28;20076;-75
2023/03/28 05:25:22;;;;;;;5.68;0.75;;;1.20;99.90;;;;;;5020290;28;20493;-74
2023/03/28 05:27:48;;;;;;;8.48;0.70;;;1.60;99.90;;;;;;5036129;28;20047;-74
2023/03/28 05:30:14;;;;;;;5.75;0.80;;;1.20;99.90;;;;;;5020076;28;20123;-74
2023/03/28 05:32:40;;;;;;;7.63;0.70;;;1.00;99.90;;;;;;5054054;28;20063;-74
2023/03/28 05:35:08;;;;;;;3.97;0.68;;;1.50;99.90;;;;;;5035985;28;20443;-74
2023/03/28 05:37:34;;;;;;;6.40;0.82;;;1.00;99.90;;;;;;5036025;28;20132;-74
2023/03/28 05:40:00;;;;;;;7.50;0.90;;;1.40;99.90;;;;;;5053702;28;20045;-74
2023/03/28 05:42:25;;;;;;;4.63;0.80;;;0.90;99.90;;;;;;5036040;28;20398;-74
2023/03/28 05:44:51;;;;;;;6.78;1.00;;;0.90;99.90;;;;;;5053287;28;20052;-74
2023/03/28 05:47:17;;;;;;;4.95;1.10;;;1.20;99.90;;;;;;5053511;28;20041;-74
2023/03/28 05:49:43;;;;;;;4.78;0.75;;;1.00;99.90;;;;;;5053153;28;20053;-73
2023/03/28 05:52:09;;;;;;;3.13;0.80;;;1.20;99.90;;;;;;5035449;28;20140;-74
2023/03/28 05:54:35;;;;;;;5.10;0.80;;;1.00;99.90;;;;;;5035733;28;20053;-74
2023/03/28 05:57:01;;;;;;;10.32;0.95;;;0.90;99.90;;;;;;5035590;28;20045;-74
2023/03/28 05:59:26;;;;;;;5.93;0.82;;;1.00;99.90;;;;;;5035684;28;20049;-74
2023/03/28 06:01:54;;;;;;;9.00;1.05;;;0.90;99.90;;;;;;5019418;28;20186;-74
2023/03/28 06:04:20;;;;;;;7.25;1.27;;;1.60;99.90;;;;;;5019210;28;20048;-74
2023/03/28 06:06:47;;;;;;;3.90;0.80;;;1.10;99.90;;;;;;5019405;28;20037;-74
2023/03/28 06:09:14;;;;;;;3.70;0.70;;;1.60;99.90;;;;;;5036530;28;20415;-74
2023/03/28 06:11:41;;;;;;;5.82;0.80;;;0.90;99.90;;;;;;5035493;28;20045;-74
2023/03/28 06:14:08;;;;;;;3.55;0.63;;;1.00;99.90;;;;;;5036452;28;20048;-74
2023/03/28 06:16:34;;;;;;;4.85;0.88;;;1.00;99.90;;;;;;5036259;28;20390;-74
2023/03/28 06:18:59;;;;;;;5.72;1.08;;;1.00;99.90;;;;;;5035875;28;20498;-74
2023/03/28 06:21:25;;;;;;;6.00;0.90;;;1.10;99.90;;;;;;5019270;28;20061;-73
2023/03/28 06:23:51;;;;;;;5.18;0.73;;;1.40;99.90;;;;;;5019972;28;20052;-74
2023/03/28 06:26:17;;;;;;;6.10;0.95;;;1.40;99.90;;;;;;5019031;28;20063;-74
2023/03/28 06:28:43;;;;;;;4.90;0.70;;;1.40;99.90;;;;;;5053320;28;20470;-74
2023/03/28 06:31:13;;;;;;;5.28;0.80;;;1.50;99.90;;;;;;5053114;28;20041;-73
2023/03/28 06:33:40;;;;;;;1.77;0.65;;;1.40;99.90;;;;;;5053416;28;20441;-74
2023/03/28 06:36:10;;;;;;;7.20;0.65;;;1.30;99.90;;;;;;5018725;28;20049;-74
2023/03/28 06:38:36;;;;;;;5.63;0.88;;;1.30;99.90;;;;;;5035338;28;20053;-74
2023/03/28 06:41:02;;;;;;;4.28;1.17;;;1.50;99.90;;;;;;5034897;28;20121;-74
2023/03/28 06:43:30;;;;;;;5.57;0.90;;;1.60;99.90;;;;;;5018724;28;20119;-74
2023/03/28 06:45:56;;;;;;;4.70;1.00;;;1.80;99.90;;;;;;5052927;28;20053;-74
2023/03/28 06:48:22;;;;;;;3.28;0.77;;;2.50;99.90;;;;;;5035035;28;20049;-74
2023/03/28 06:50:50;;;;;;;6.18;1.25;;;1.60;99.90;;;;;;5018971;28;20041;-74
2023/03/28 06:53:16;;;;;;;6.70;1.98;;;2.00;99.90;;;;;;5052781;28;20045;-74
2023/03/28 06:55:42;;;;;;;5.72;1.20;;;2.00;99.90;;;;;;5035068;28;20056;-74
2023/03/28 06:58:08;;;;;;;8.50;1.08;;;1.60;99.90;;;;;;5034803;28;20102;-74
2023/03/28 07:00:34;;;;;;;6.22;0.88;;;2.10;99.90;;;;;;5053557;28;20045;-74
2023/03/28 07:03:00;;;;;;;3.35;0.70;;;1.90;99.90;;;;;;5055591;28;20045;-74
2023/03/28 07:05:26;;;;;;;3.63;1.00;;;2.10;99.90;;;;;;5038706;28;20175;-74
2023/03/28 07:07:51;;;;;;;9.38;1.23;;;2.10;99.90;;;;;;5039804;28;20088;-74
2023/03/28 07:10:17;;;;;;;7.30;1.30;;;2.00;99.90;;;;;;5056162;28;20536;-74
2023/03/28 07:12:43;;;;;;;6.03;0.90;;;2.20;99.90;;;;;;5038889;28;20609;-74
2023/03/28 07:15:10;;;;;;;5.50;0.90;;;2.60;99.90;;;;;;5039550;28;20131;-74
2023/03/28 07:17:36;;;;;;;5.50;0.90;;;2.70;99.90;;;;;;5056025;28;20063;-73
2023/03/28 07:20:03;;;;;;;3.53;0.75;;;3.00;99.90;;;;;;5038985;28;20045;-73
2023/03/28 07:22:29;;;;;;;10.15;0.90;;;2.80;99.90;;;;;;5056297;28;20088;-74
2023/03/28 07:24:55;;;;;;;10.25;1.73;;;3.00;99.90;;;;;;5022203;28;20049;-74
2023/03/28 07:27:20;;;;;;;6.25;0.80;;;4.10;99.90;;;;;;5021913;28;20053;-74
2023/03/28 07:29:46;;;;;;;7.65;0.80;;;3.70;99.90;;;;;;5056073;28;20124;-75
2023/03/28 07:32:13;;;;;;;7.45;1.50;;;3.60;99.90;;;;;;5038107;28;20087;-75
2023/03/28 07:34:40;;;;;;;5.40;1.58;;;3.80;99.90;;;;;;5021607;28;20051;-74
2023/03/28 07:37:06;;;;;;;6.45;1.40;;;3.60;99.90;;;;;;5039017;28;20063;-74
2023/03/28 07:39:33;;;;;;;5.65;0.80;;;3.80;99.90;;;;;;5038061;28;20056;-74
2023/03/28 07:41:59;;;;;;;7.63;1.40;;;4.20;99.90;;;;;;5044340;28;20421;-72
2023/03/28 07:44:25;;;;;;;4.45;1.25;;;4.10;99.90;;;;;;5038280;28;20045;-73
2023/03/28 07:46:51;;;;;;;2.70;0.70;;;4.00;99.90;;;;;;5038424;28;20060;-70
2023/03/28 07:49:19;;;;;;;6.50;1.33;;;4.20;99.90;;;;;;5055816;28;20174;-70
2023/03/28 07:51:46;;;;;;;4.82;1.10;;;4.20;99.90;;;;;;5022733;28;20060;-69
2023/03/28 07:54:16;;;;;;;4.28;1.05;;;4.50;99.90;;;;;;5043208;28;20045;-69
2023/03/28 07:56:43;;;;;;;6.97;0.82;;;4.20;99.90;;;;;;5038050;28;20548;-70
2023/03/28 07:59:12;;;;;;;2.92;0.80;;;5.00;99.90;;;;;;5055739;28;20056;-69
2023/03/28 08:01:42;;;;;;;6.10;0.80;;;5.00;99.90;;;;;;5037692;28;20045;-70
2023/03/28 08:04:09;;;;;;;5.05;1.02;;;4.30;99.90;;;;;;5022459;28;20402;-69
2023/03/28 08:06:37;;;;;;;5.40;0.63;;;4.50;99.90;;;;;;5055507;28;20080;-69
2023/03/28 08:09:14;;;;;;;4.40;0.60;;;4.90;99.90;;;;;;5056369;28;20114;-69
2023/03/28 08:11:42;;;;;;;1.60;0.88;;;4.50;99.90;;;;;;5055465;28;20053;-69
2023/03/28 08:14:14;;;;;;;4.43;0.80;;;4.80;99.90;;;;;;5054959;28;20437;-69
2023/03/28 08:16:41;;;;;;;6.22;0.90;;;4.80;99.90;;;;;;5038396;28;20045;-68
2023/03/28 08:19:07;;;;;;;5.68;1.10;;;4.80;99.90;;;;;;5021173;28;20060;-69
2023/03/28 08:21:34;;;;;;;6.60;1.65;;;4.60;99.90;;;;;;5055785;28;20169;-68
2023/03/28 08:24:01;;;;;;;9.05;0.95;;;4.60;99.90;;;;;;5021249;28;20056;-68
2023/03/28 08:26:27;;;;;;;6.50;1.23;;;5.10;99.90;;;;;;5037777;28;20344;-67
2023/03/28 08:28:53;;;;;;;4.68;1.52;;;4.50;99.90;;;;;;5037532;28;20367;-68
2023/03/28 08:31:22;;;;;;;4.15;0.90;;;4.90;99.90;;;;;;5021794;28;20063;-68
2023/03/28 08:33:51;;;;;;;3.72;0.50;;;4.50;99.90;;;;;;5054911;28;20052;-67
2023/03/28 08:36:19;;;;;;;4.85;0.65;;;5.00;99.90;;;;;;5037693;28;20410;-68
2023/03/28 08:38:46;;;;;;;5.60;0.80;;;4.70;99.90;;;;;;5037388;28;20372;-68
2023/03/28 08:41:17;;;;;;;3.75;0.60;;;5.20;99.90;;;;;;5054811;28;20083;-68
2023/03/28 08:44:09;;;;;;;3.70;0.77;;;4.60;99.90;;;;;;5054409;28;20477;-69
2023/03/28 08:46:37;;;;;;;6.30;0.70;;;4.90;99.90;;;;;;5037357;28;20057;-70
2023/03/28 08:49:13;;;;;;;10.05;2.00;;;5.30;99.90;;;;;;5037282;28;20544;-69
2023/03/28 08:51:42;;;;;;;2.92;0.60;;;5.20;99.90;;;;;;5054309;28;20491;-69
2023/03/28 08:54:27;;;;;;;3.25;0.77;;;5.20;99.90;;;;;;5020915;28;20095;-70
2023/03/28 08:56:56;;;;;;;4.50;0.95;;;5.50;99.90;;;;;;5037271;28;20048;-69
2023/03/28 08:59:59;;;;;;;2.15;0.50;;;5.40;99.90;;;;;;5054337;28;20551;-70
2023/03/28 09:02:27;;;;;;;2.25;0.57;;;5.50;99.90;;;;;;5018849;28;20092;-69
2023/03/28 09:04:54;;;;;;;2.55;0.98;;;5.70;99.90;;;;;;5020325;28;20045;-69
2023/03/28 09:07:38;;;;;;;4.93;0.88;;;6.00;99.90;;;;;;5036537;28;20052;-70
2023/03/28 09:10:38;;;;;;;5.32;0.63;;;5.90;99.90;;;;;;5036696;28;20053;-71
2023/03/28 09:13:25;;;;;;;3.90;0.50;;;6.00;99.90;;;;;;5037453;28;20548;-70
2023/03/28 09:16:01;;;;;;;4.07;0.52;;;6.10;99.90;;;;;;5053901;28;20509;-70
2023/03/28 09:18:37;;;;;;;3.13;0.60;;;6.10;99.90;;;;;;5020842;28;20471;-70
2023/03/28 09:21:19;;;;;;;2.55;0.40;;;6.10;99.90;;;;;;5037306;28;20048;-69
2023/03/28 09:23:45;;;;;;;2.97;0.40;;;6.20;99.90;;;;;;5054676;28;20447;-69
2023/03/28 09:26:22;;;;;;;4.65;0.63;;;6.40;99.90;;;;;;5036798;28;20060;-68
2023/03/28 09:29:00;;;;;;;7.78;0.60;;;6.20;99.90;;;;;;5053948;28;20045;-70
2023/03/28 09:31:39;;;;;;;3.25;0.50;;;6.10;99.90;;;;;;5036579;28;20399;-70
2023/03/28 09:34:06;;;;;;;3.15;0.50;;;6.00;99.90;;;;;;5037165;28;20076;-71
2023/03/28 09:36:36;;;;;;;1.30;0.40;;;6.20;99.90;;;;;;5053668;28;20033;-70
2023/03/28 09:39:17;;;;;;;5.28;0.60;;;6.30;99.90;;;;;;5019665;28;20045;-71
2023/03/28 09:41:52;;;;;;;3.05;0.40;;;6.30;99.90;;;;;;5036962;28;20053;-70
2023/03/28 09:44:22;;;;;;;2.90;0.40;;;6.30;99.90;;;;;;5020061;28;20135;-69
2023/03/28 09:46:48;;;;;;;2.95;0.35;;;6.70;99.90;;;;;;5035794;28;20037;-70
2023/03/28 09:49:22;;;;;;;2.88;0.40;;;6.30;99.90;;;;;;5036071;28;20045;-70
2023/03/28 09:51:51;;;;;;;5.13;0.40;;;6.40;99.90;;;;;;5054223;28;20067;-69
2023/03/28 09:54:32;;;;;;;1.98;0.40;;;6.40;99.90;;;;;;5053256;28;20045;-70
2023/03/28 09:57:02;;;;;;;1.52;0.65;;;6.50;99.90;;;;;;5054051;28;20415;-75
2023/03/28 09:59:30;;;;;;;1.45;0.40;;;6.80;99.90;;;;;;5053408;28;20099;-69
2023/03/28 10:01:57;;;;;;;3.00;0.50;;;6.60;99.90;;;;;;5036157;28;20045;-69
2023/03/28 10:04:28;;;;;;;2.30;0.35;;;6.50;99.90;;;;;;5053419;28;20084;-70
2023/03/28 10:07:18;;;;;;;1.73;0.50;;;6.50;99.90;;;;;;5053291;28;20124;-70
2023/03/28 10:09:53;;;;;;;2.95;0.40;;;6.70;99.90;;;;;;5035421;28;20048;-70
2023/03/28 10:12:42;;;;;;;3.60;0.40;;;6.90;99.90;;;;;;5053252;28;20041;-70
2023/03/28 10:15:31;;;;;;;4.55;0.60;;;6.90;99.90;;;;;;5053723;28;20379;-70
2023/03/28 10:18:00;;;;;;;3.92;0.40;;;6.60;99.90;;;;;;5035342;28;20037;-70
2023/03/28 10:20:26;;;;;;;1.38;0.43;;;6.90;99.90;;;;;;5035523;28;20049;-71
2023/03/28 10:22:54;;;;;;;1.90;0.40;;;6.70;99.90;;;;;;5053405;28;20099;-71
2023/03/28 10:25:28;;;;;;;3.63;0.82;;;6.70;99.90;;;;;;5053296;28;20051;-69
2023/03/28 10:27:55;;;;;;;1.63;0.50;;;6.70;99.90;;;;;;5053742;28;20132;-70
2023/03/28 10:30:25;;;;;;;2.88;0.50;;;6.70;99.90;;;;;;5053151;28;20134;-70
2023/03/28 10:33:16;;;;;;;1.23;0.73;;;6.90;99.90;;;;;;5052951;28;20482;-70
2023/03/28 10:36:00;;;;;;;2.33;0.55;;;6.70;99.90;;;;;;5022629;28;20421;-68
2023/03/28 10:38:33;;;;;;;2.13;0.40;;;7.00;99.90;;;;;;5057320;28;20053;-71
2023/03/28 10:41:11;;;;;;;2.90;0.50;;;7.00;99.90;;;;;;5039050;28;20041;-71
2023/03/28 10:43:39;;;;;;;3.13;0.65;;;6.90;99.90;;;;;;5039239;28;20135;-71
2023/03/28 10:46:19;;;;;;;4.53;1.40;;;7.00;99.90;;;;;;5057316;28;20091;-70
2023/03/28 10:48:50;;;;;;;2.15;0.57;;;6.90;99.90;;;;;;5059284;28;20132;-70
2023/03/28 10:51:20;;;;;;;2.38;0.50;;;7.20;99.90;;;;;;5057627;28;20139;-72
2023/03/28 10:54:20;;;;;;;1.58;0.40;;;7.00;99.90;;;;;;5039570;28;20045;-69
2023/03/28 10:57:05;;;;;;;3.63;0.50;;;6.80;99.90;;;;;;5056727;28;20101;-70
2023/03/28 10:59:58;;;;;;;2.13;0.90;;;6.90;99.90;;;;;;5058389;28;20510;-69
2023/03/28 11:02:48;;;;;;;2.78;0.50;;;6.80;99.90;;;;;;5056769;28;20060;-69
2023/03/28 11:05:51;;;;;;;2.13;0.40;;;6.90;99.90;;;;;;5056750;28;20044;-69
2023/03/28 11:08:45;;;;;;;1.50;0.52;;;7.20;99.90;;;;;;5039784;28;20080;-70
2023/03/28 11:11:41;;;;;;;2.45;0.95;;;7.20;99.90;;;;;;5039338;28;20056;-69
2023/03/28 11:14:07;;;;;;;2.05;0.43;;;7.10;99.90;;;;;;5057034;28;20088;-70
2023/03/28 11:17:10;;;;;;;2.22;0.60;;;7.10;99.90;;;;;;5038570;28;20083;-70
2023/03/28 11:20:40;;;;;;;12.93;6.80;;;7.30;99.90;;;;;;5056369;28;20135;-69
2023/03/28 11:23:21;;;;;;;5.55;1.40;;;7.30;99.90;;;;;;4953887;28;20081;-69
2023/03/28 11:26:07;;;;;;;2.90;0.50;;;7.50;99.90;;;;;;4940811;29;20134;-70
2023/03/28 11:28:44;;;;;;;2.78;0.60;;;7.70;99.90;;;;;;5027622;28;20103;-69
2023/03/28 11:31:40;;;;;;;2.40;0.52;;;7.60;99.90;;;;;;5057018;28;20391;-69
2023/03/28 11:34:11;;;;;;;2.47;0.70;;;7.50;99.90;;;;;;5056074;28;20136;-69
2023/03/28 11:37:06;;;;;;;3.03;0.60;;;7.60;99.90;;;;;;5055985;28;20041;-70
2023/03/28 11:39:50;;;;;;;3.28;0.60;;;7.60;99.90;;;;;;5055738;28;20052;-69
2023/03/28 11:42:40;;;;;;;1.70;0.40;;;7.70;99.90;;;;;;5038746;28;20041;-68
2023/03/28 11:45:19;;;;;;;2.30;0.40;;;7.80;99.90;;;;;;5037682;28;20061;-70
2023/03/28 11:47:53;;;;;;;2.13;0.50;;;7.70;99.90;;;;;;5020735;28;20095;-70
2023/03/28 11:50:30;;;;;;;2.03;0.60;;;7.90;99.90;;;;;;5055815;28;20098;-70
2023/03/28 11:53:06;;;;;;;3.85;0.50;;;8.00;99.90;;;;;;5056304;28;20122;-69
2023/03/28 11:55:38;;;;;;;0.57;0.40;;;8.00;99.90;;;;;;5056485;28;20120;-70
2023/03/28 11:58:24;;;;;;;2.35;0.38;;;8.20;99.90;;;;;;5055511;28;20047;-70
2023/03/28 12:01:14;;;;;;;1.25;0.43;;;8.20;99.90;;;;;;5055659;28;20158;-71
2023/03/28 12:04:07;;;;;;;0.95;0.30;;;8.20;99.90;;;;;;5037175;28;20040;-75
2023/03/28 12:06:40;;;;;;;0.93;0.50;;;8.40;99.90;;;;;;5055491;28;20548;-70
2023/03/28 12:09:45;;;;;;;1.25;0.35;;;8.40;99.90;;;;;;5054892;28;20572;-73
2023/03/28 12:12:15;;;;;;;1.65;0.40;;;8.40;99.90;;;;;;5004461;28;20083;-71
2023/03/28 12:14:56;;;;;;;3.40;0.45;;;8.50;99.90;;;;;;5055442;28;20045;-70
2023/03/28 12:17:27;;;;;;;1.73;0.40;;;8.50;99.90;;;;;;5055614;28;20098;-71
2023/03/28 12:19:53;;;;;;;2.78;0.50;;;8.50;99.90;;;;;;5038342;28;20053;-69
2023/03/28 12:22:31;;;;;;;2.33;0.40;;;8.50;99.90;;;;;;5055066;28;20044;-69
2023/03/28 12:25:18;;;;;;;1.90;0.40;;;8.40;99.90;;;;;;5055071;28;20067;-69
2023/03/28 12:28:03;;;;;;;1.40;0.40;;;8.60;99.90;;;;;;5037548;28;20455;-70
2023/03/28 12:30:41;;;;;;;2.15;0.50;;;8.30;99.90;;;;;;5021664;28;20356;-70
2023/03/28 12:33:29;;;;;;;2.58;0.60;;;8.40;99.90;;;;;;5054908;28;20114;-70
2023/03/28 12:36:25;;;;;;;3.50;0.60;;;8.30;99.90;;;;;;5054557;28;20099;-70
2023/03/28 12:39:08;;;;;;;1.98;0.50;;;8.40;99.90;;;;;;5012930;28;20529;-71
2023/03/28 12:41:39;;;;;;;2.20;0.57;;;8.50;99.90;;;;;;5055308;28;20073;-71
2023/03/28 12:44:16;;;;;;;2.47;0.60;;;8.60;99.90;;;;;;5054757;28;20056;-72
2023/03/28 12:46:55;;;;;;;0.85;0.50;;;8.60;99.90;;;;;;5054718;28;20048;-69
2023/03/28 12:49:37;;;;;;;1.95;0.50;;;8.60;99.90;;;;;;5020946;28;20053;-70
2023/03/28 12:52:06;;;;;;;4.70;0.60;;;8.80;99.90;;;;;;5055020;28;20376;-71
2023/03/28 12:54:34;;;;;;;2.78;0.80;;;8.90;99.90;;;;;;5036911;28;20045;-70
2023/03/28 12:57:08;;;;;;;2.25;0.55;;;8.90;99.90;;;;;;5054872;28;20471;-72
2023/03/28 12:59:43;;;;;;;1.25;0.50;;;8.80;99.90;;;;;;5036325;28;20049;-71
2023/03/28 13:02:41;;;;;;;2.13;0.50;;;8.90;99.90;;;;;;5054826;28;20072;-73
2023/03/28 13:05:39;;;;;;;3.83;0.75;;;8.70;99.90;;;;;;5054196;28;20045;-71
2023/03/28 13:08:34;;;;;;;2.58;0.55;;;8.80;99.90;;;;;;5054567;28;20045;-70
2023/03/28 13:11:12;;;;;;;2.83;1.05;;;8.90;99.90;;;;;;5045710;28;20490;-70
2023/03/28 13:13:46;;;;;;;4.78;0.70;;;8.90;99.90;;;;;;5054260;28;20045;-71
2023/03/28 13:16:13;;;;;;;2.50;0.40;;;8.90;99.90;;;;;;5036564;28;20056;-71
2023/03/28 13:18:46;;;;;;;3.58;0.60;;;8.80;99.90;;;;;;5053913;28;20053;-71
2023/03/28 13:21:48;;;;;;;1.45;0.40;;;9.00;99.90;;;;;;5054146;28;20056;-71
2023/03/28 13:24:35;;;;;;;1.55;0.85;;;9.00;99.90;;;;;;5054698;28;20110;-70
2023/03/28 13:27:31;;;;;;;1.90;0.60;;;9.00;99.90;;;;;;5036105;28;20037;-70
2023/03/28 13:30:06;;;;;;;2.72;0.50;;;9.20;99.90;;;;;;5053982;28;20045;-71
2023/03/28 13:32:45;;;;;;;2.80;0.50;;;9.10;99.90;;;;;;5053734;28;20131;-70